Time;durP1;ratioP1;P1;durP2;ratioP2;P2;SDS_P1;SDS_P2;PMS_P1;PMS_P2;Temp;Humidity;BMP_temperature;BMP_pressure;BME280_temperature;BME280_humidity;BME280_pressure;Samples;Min_cycle;Max_cycle;Signal;HPM_P1;HPM_P2
2022/01/10 00:00:28;;;;;;;10.20;6.70;;;;;;;3.87;88.40;100131.91;5051448;28;20202;-70
2022/01/10 00:02:57;;;;;;;13.03;6.30;;;;;;;3.88;88.81;100142.38;5053673;28;20679;-70
2022/01/10 00:05:24;;;;;;;10.97;7.03;;;;;;;3.87;88.53;100148.56;5045853;28;20226;-69
2022/01/10 00:07:51;;;;;;;12.73;6.60;;;;;;;3.88;88.21;100152.91;5050991;28;20239;-69
2022/01/10 00:10:18;;;;;;;12.23;6.53;;;;;;;3.89;88.54;100157.25;5044546;28;20212;-70
2022/01/10 00:12:45;;;;;;;15.73;6.80;;;;;;;3.88;88.27;100163.44;5044563;28;20206;-70
2022/01/10 00:15:15;;;;;;;12.43;6.87;;;;;;;3.89;88.54;100162.53;5047034;28;20220;-70
2022/01/10 00:17:43;;;;;;;16.47;7.67;;;;;;;3.89;88.10;100167.78;5046020;28;20710;-69
2022/01/10 00:20:14;;;;;;;14.40;7.00;;;;;;;3.89;88.34;100167.78;5044999;28;20200;-70
2022/01/10 00:22:45;;;;;;;12.87;7.37;;;;;;;3.89;88.06;100180.97;5045120;28;20303;-71
2022/01/10 00:25:13;;;;;;;15.00;7.40;;;;;;;3.90;88.65;100176.56;5047433;28;20312;-68
2022/01/10 00:27:39;;;;;;;12.63;7.20;;;;;;;3.91;88.11;100186.16;5050152;28;20247;-70
2022/01/10 00:30:09;;;;;;;10.40;6.50;;;;;;;3.90;88.53;100174.78;5047284;28;20198;-70
2022/01/10 00:32:35;;;;;;;15.90;7.20;;;;;;;3.91;88.13;100186.16;5047357;28;20205;-68
2022/01/10 00:35:02;;;;;;;16.67;6.63;;;;;;;3.91;88.17;100194.94;5048322;28;20209;-70
2022/01/10 00:37:30;;;;;;;14.53;8.00;;;;;;;3.92;88.84;100201.06;5042845;28;20605;-69
2022/01/10 00:39:56;;;;;;;14.17;7.27;;;;;;;3.91;88.13;100202.84;5052114;28;20709;-69
2022/01/10 00:42:23;;;;;;;17.00;7.50;;;;;;;3.92;88.26;100207.19;5045871;28;20216;-69
2022/01/10 00:44:52;;;;;;;20.53;6.80;;;;;;;3.92;88.59;100207.19;5042543;28;20601;-70
2022/01/10 00:47:19;;;;;;;11.13;6.97;;;;;;;3.92;88.57;100209.81;5047504;28;20722;-70
2022/01/10 00:49:46;;;;;;;15.60;7.47;;;;;;;3.92;88.18;100209.81;5048459;28;20293;-70
2022/01/10 00:52:13;;;;;;;13.67;7.70;;;;;;;3.93;88.64;100215.94;5040704;28;20608;-69
2022/01/10 00:54:41;;;;;;;12.67;7.20;;;;;;;3.92;88.58;100220.34;5047309;28;20198;-70
2022/01/10 00:57:08;;;;;;;15.47;7.23;;;;;;;3.91;88.72;100223.91;5032900;28;20226;-69
2022/01/10 00:59:34;;;;;;;16.67;7.40;;;;;;;3.92;88.37;100230.91;5046109;28;20210;-69
2022/01/10 01:02:01;;;;;;;16.10;7.43;;;;;;;3.92;88.38;100230.91;5048701;28;20209;-69
2022/01/10 01:04:28;;;;;;;15.33;8.03;;;;;;;3.92;88.59;100236.16;5044856;28;20218;-70
2022/01/10 01:06:54;;;;;;;15.73;7.10;;;;;;;3.93;88.29;100240.50;5036975;28;20233;-70
2022/01/10 01:09:26;;;;;;;16.10;7.27;;;;;;;3.93;88.69;100237.88;5032124;28;20210;-69
2022/01/10 01:12:11;;;;;;;16.43;7.73;;;;;;;3.94;88.31;100250.09;5050635;28;20214;-70
2022/01/10 01:14:51;;;;;;;9.73;7.03;;;;;;;3.94;88.44;100258.00;5051737;28;20232;-71
2022/01/10 01:17:34;;;;;;;15.27;7.63;;;;;;;3.94;88.46;100265.91;5041924;28;20213;-67
2022/01/10 01:20:10;;;;;;;13.73;7.20;;;;;;;3.94;88.19;100260.63;5049678;28;20240;-69
2022/01/10 01:25:20;;;;;;;12.77;7.30;;;;;;;3.95;88.86;100266.75;5040918;28;20603;-71
2022/01/10 01:27:51;;;;;;;14.73;7.60;;;;;;;3.95;88.50;100275.53;5054540;28;20225;-70
2022/01/10 01:30:18;;;;;;;14.37;7.93;;;;;;;3.95;88.11;100277.31;5046013;28;20205;-72
2022/01/10 01:32:45;;;;;;;13.80;7.40;;;;;;;3.95;88.70;100283.44;5049411;28;20209;-71
2022/01/10 01:35:12;;;;;;;23.20;7.50;;;;;;;3.95;88.69;100282.56;5040592;28;20208;-70
2022/01/10 01:37:39;;;;;;;13.37;6.77;;;;;;;3.95;88.31;100288.69;5044761;28;20229;-70
2022/01/10 01:40:10;;;;;;;16.13;7.10;;;;;;;3.95;88.21;100295.75;5049122;28;20685;-70
2022/01/10 01:42:39;;;;;;;18.03;7.67;;;;;;;3.96;88.74;100298.31;5046635;28;20679;-69
2022/01/10 01:45:10;;;;;;;22.93;8.53;;;;;;;3.96;88.10;100300.09;5039642;28;20230;-70
2022/01/10 01:47:37;;;;;;;14.10;6.87;;;;;;;3.96;88.32;100300.94;5036098;28;20312;-71
2022/01/10 01:50:04;;;;;;;11.47;6.37;;;;;;;3.95;88.57;100311.56;5043751;28;20300;-71
2022/01/10 01:52:31;;;;;;;14.00;6.90;;;;;;;3.96;88.13;100315.91;5041551;28;20214;-70
2022/01/10 01:54:59;;;;;;;15.20;6.80;;;;;;;3.96;88.66;100310.63;5039295;28;20213;-70
2022/01/10 01:57:26;;;;;;;17.17;7.17;;;;;;;3.95;88.66;100320.31;5030486;28;20234;-70
2022/01/10 01:59:53;;;;;;;18.93;8.70;;;;;;;3.94;88.51;100323.88;5051387;28;20590;-72
2022/01/10 02:02:21;;;;;;;12.50;7.20;;;;;;;3.94;88.14;100328.31;5043323;28;20209;-70
2022/01/10 02:04:48;;;;;;;14.80;7.10;;;;;;;3.94;88.54;100333.59;5050062;28;20635;-69
2022/01/10 02:07:17;;;;;;;12.53;7.00;;;;;;;3.92;88.42;100325.75;5057606;22;20227;-71
2022/01/10 02:09:43;;;;;;;15.03;7.53;;;;;;;3.92;88.03;100333.63;5016526;28;20206;-72
2022/01/10 02:12:10;;;;;;;16.23;8.00;;;;;;;3.90;88.00;100327.56;5042243;28;20216;-71
2022/01/10 02:14:38;;;;;;;15.23;8.23;;;;;;;3.89;88.51;100331.13;5017881;28;20707;-71
2022/01/10 02:17:05;;;;;;;12.63;7.77;;;;;;;3.89;88.12;100336.41;5017104;28;20250;-71
2022/01/10 02:19:33;;;;;;;15.80;6.87;;;;;;;3.87;88.60;100338.22;5016438;28;20618;-71
2022/01/10 02:22:01;;;;;;;17.53;7.73;;;;;;;3.87;88.54;100342.63;5029667;28;20210;-71
2022/01/10 02:24:28;;;;;;;14.40;7.33;;;;;;;3.86;88.15;100349.69;5019051;28;20225;-71
2022/01/10 02:26:54;;;;;;;18.30;8.00;;;;;;;3.85;88.06;100355.88;5023837;28;20237;-71
2022/01/10 02:29:21;;;;;;;15.50;7.40;;;;;;;3.83;87.96;100362.97;5025449;28;20656;-71
2022/01/10 02:31:48;;;;;;;16.37;7.63;;;;;;;3.83;88.23;100371.75;5019134;28;20213;-71
2022/01/10 02:34:18;;;;;;;14.67;7.33;;;;;;;3.81;87.87;100375.34;5025137;28;20412;-72
2022/01/10 02:36:45;;;;;;;16.33;7.70;;;;;;;3.80;87.90;100381.53;5034714;28;20194;-70
2022/01/10 02:39:15;;;;;;;12.37;7.53;;;;;;;3.80;88.41;100384.16;5024605;28;20210;-71
2022/01/10 02:41:44;;;;;;;17.03;7.20;;;;;;;3.79;88.43;100388.56;5029359;28;20198;-71
2022/01/10 02:44:14;;;;;;;20.53;7.80;;;;;;;3.77;88.34;100392.19;5023778;28;20203;-71
2022/01/10 02:46:41;;;;;;;17.33;7.30;;;;;;;3.77;88.54;100392.19;5017820;28;20222;-71
2022/01/10 02:49:10;;;;;;;15.67;7.90;;;;;;;3.76;88.25;100393.13;5025475;28;20663;-71
2022/01/10 02:51:36;;;;;;;17.77;7.50;;;;;;;3.76;88.69;100401.84;5010913;28;20218;-72
2022/01/10 02:54:03;;;;;;;15.90;8.43;;;;;;;3.76;88.75;100407.13;5009517;28;20207;-72
2022/01/10 02:56:31;;;;;;;15.97;8.80;;;;;;;3.75;88.24;100410.72;5011006;28;20593;-71
2022/01/10 02:58:57;;;;;;;15.60;8.30;;;;;;;3.76;88.54;100414.19;5022882;28;20229;-70
2022/01/10 03:01:24;;;;;;;14.63;7.70;;;;;;;3.75;88.73;100420.38;5030967;28;20943;-70
2022/01/10 03:03:50;;;;;;;16.57;8.03;;;;;;;3.75;88.57;100423.88;5033658;28;20198;-71
2022/01/10 03:06:17;;;;;;;17.97;8.53;;;;;;;3.77;88.86;100437.81;5035982;28;20410;-71
2022/01/10 03:08:44;;;;;;;18.13;8.17;;;;;;;3.77;88.69;100436.97;5029259;28;20234;-71
2022/01/10 03:11:10;;;;;;;16.40;8.20;;;;;;;3.76;88.28;100438.75;5035796;28;20208;-71
2022/01/10 03:13:38;;;;;;;15.30;8.37;;;;;;;3.76;89.13;100441.38;5018977;28;20206;-71
2022/01/10 03:16:05;;;;;;;17.97;8.00;;;;;;;3.76;88.63;100446.63;5038890;28;20205;-70
2022/01/10 03:18:31;;;;;;;19.53;9.40;;;;;;;3.76;88.85;100456.34;5029153;28;20225;-71
2022/01/10 03:20:58;;;;;;;17.90;8.37;;;;;;;3.77;88.86;100458.03;5021084;28;20211;-71
2022/01/10 03:23:24;;;;;;;19.40;9.17;;;;;;;3.76;88.99;100462.44;5027573;28;20675;-71
2022/01/10 03:25:51;;;;;;;27.57;9.03;;;;;;;3.77;88.26;100468.56;5029617;28;20237;-71
2022/01/10 03:28:17;;;;;;;14.27;8.77;;;;;;;3.76;88.46;100467.72;5023949;28;20743;-71
2022/01/10 03:30:45;;;;;;;16.23;8.80;;;;;;;3.76;88.62;100469.50;5043936;28;20655;-71
2022/01/10 03:33:12;;;;;;;18.07;9.63;;;;;;;3.77;88.73;100473.84;5037022;28;20206;-71
2022/01/10 03:35:39;;;;;;;16.13;8.70;;;;;;;3.76;89.21;100472.97;5039729;28;20204;-71
2022/01/10 03:38:05;;;;;;;21.47;8.83;;;;;;;3.75;89.18;100476.56;5032399;28;20231;-73
2022/01/10 03:40:32;;;;;;;21.30;9.70;;;;;;;3.75;89.04;100484.47;5023852;28;20220;-71
2022/01/10 03:42:58;;;;;;;25.57;10.17;;;;;;;3.74;89.10;100485.38;5035983;28;20297;-71
2022/01/10 03:45:25;;;;;;;18.67;9.93;;;;;;;3.75;88.65;100494.13;5030955;28;20206;-71
2022/01/10 03:47:53;;;;;;;21.47;9.97;;;;;;;3.75;88.57;100499.41;5035866;28;20226;-71
2022/01/10 03:50:20;;;;;;;13.93;8.90;;;;;;;3.75;88.45;100502.03;5031265;28;20206;-71
2022/01/10 03:52:46;;;;;;;16.60;9.67;;;;;;;3.74;89.15;100510.84;5018982;28;20581;-71
2022/01/10 03:55:13;;;;;;;23.57;10.33;;;;;;;3.73;88.80;100509.13;5027844;28;20206;-71
2022/01/10 03:57:39;;;;;;;18.80;9.67;;;;;;;3.74;88.76;100516.13;5030972;28;20233;-71
2022/01/10 04:00:08;;;;;;;16.37;9.00;;;;;;;3.74;88.99;100521.41;5038454;28;20202;-71
2022/01/10 04:02:36;;;;;;;18.20;9.60;;;;;;;3.73;89.40;100527.56;5036923;28;20595;-71
2022/01/10 04:05:05;;;;;;;21.27;9.10;;;;;;;3.73;88.67;100527.56;5032875;28;20206;-72
2022/01/10 04:07:31;;;;;;;16.40;9.60;;;;;;;3.72;89.27;100531.97;5045342;28;20233;-71
2022/01/10 04:09:58;;;;;;;21.60;10.87;;;;;;;3.73;88.79;100533.69;5026336;28;20206;-71
2022/01/10 04:12:25;;;;;;;27.77;10.07;;;;;;;3.73;89.30;100535.47;5030610;28;20214;-71
2022/01/10 04:14:52;;;;;;;17.20;9.50;;;;;;;3.72;88.93;100542.53;5031159;28;20256;-71
2022/01/10 04:17:18;;;;;;;16.13;9.30;;;;;;;3.71;89.20;100547.84;5031374;28;20229;-71
2022/01/10 04:19:45;;;;;;;24.40;10.97;;;;;;;3.69;88.87;100553.16;5025664;28;20218;-71
2022/01/10 04:22:12;;;;;;;23.00;10.60;;;;;;;3.70;89.19;100554.03;5017964;28;20219;-71
2022/01/10 04:24:39;;;;;;;17.87;10.33;;;;;;;3.69;89.30;100566.34;5030901;28;20663;-71
2022/01/10 04:27:06;;;;;;;19.20;9.67;;;;;;;3.69;89.02;100563.69;5031755;28;20242;-71
2022/01/10 04:29:33;;;;;;;17.90;10.83;;;;;;;3.69;88.88;100573.38;5032855;28;20628;-71
2022/01/10 04:32:00;;;;;;;27.03;11.00;;;;;;;3.69;89.21;100574.22;5030482;28;20225;-70
2022/01/10 04:34:27;;;;;;;21.07;10.30;;;;;;;3.69;89.11;100581.28;5017786;28;20207;-71
2022/01/10 04:36:54;;;;;;;19.40;9.27;;;;;;;3.70;88.77;100583.00;5030334;28;20225;-71
2022/01/10 04:39:22;;;;;;;16.80;10.23;;;;;;;3.70;89.48;100588.25;5025726;28;20788;-71
2022/01/10 04:41:48;;;;;;;21.43;9.73;;;;;;;3.68;88.93;100590.94;5033694;28;20226;-71
2022/01/10 04:44:15;;;;;;;15.63;10.43;;;;;;;3.70;88.99;100601.44;5034343;28;20209;-71
2022/01/10 04:46:42;;;;;;;17.50;10.23;;;;;;;3.70;89.36;100596.16;5046651;28;20527;-71
2022/01/10 04:49:17;;;;;;;14.80;8.80;;;;;;;3.70;89.59;100604.06;5041655;28;20588;-72
2022/01/10 04:51:44;;;;;;;20.03;9.40;;;;;;;3.71;89.52;100605.78;5033037;28;20201;-70
2022/01/10 04:54:10;;;;;;;20.90;9.87;;;;;;;3.71;89.03;100611.06;5025276;28;20210;-70
2022/01/10 04:56:38;;;;;;;21.03;9.23;;;;;;;3.71;89.24;100617.19;5033887;28;20197;-71
2022/01/10 04:59:05;;;;;;;17.10;8.23;;;;;;;3.72;89.63;100624.16;5035937;28;20202;-72
2022/01/10 05:01:31;;;;;;;23.93;8.93;;;;;;;3.73;88.95;100632.94;5025670;28;21054;-71
2022/01/10 05:03:58;;;;;;;17.17;9.67;;;;;;;3.73;89.28;100635.56;5029858;28;20209;-71
2022/01/10 05:06:24;;;;;;;19.00;9.07;;;;;;;3.74;89.87;100639.91;5027168;28;20241;-70
2022/01/10 05:08:51;;;;;;;17.87;9.20;;;;;;;3.75;89.68;100636.38;5018857;28;20231;-71
2022/01/10 05:11:19;;;;;;;23.33;9.70;;;;;;;3.75;89.21;100649.53;5023883;28;20430;-71
2022/01/10 05:13:47;;;;;;;16.43;9.77;;;;;;;3.74;89.60;100646.06;5025179;28;20207;-70
2022/01/10 05:16:15;;;;;;;17.83;8.80;;;;;;;3.75;89.45;100655.69;5026874;28;20195;-71
2022/01/10 05:18:42;;;;;;;16.00;8.93;;;;;;;3.74;89.70;100661.84;5029442;28;20225;-71
2022/01/10 05:21:09;;;;;;;15.87;8.77;;;;;;;3.74;89.89;100667.13;5023990;28;20210;-71
2022/01/10 05:23:35;;;;;;;16.13;8.70;;;;;;;3.74;89.59;100668.91;5034563;28;20209;-70
2022/01/10 05:26:02;;;;;;;17.10;8.90;;;;;;;3.73;89.46;100664.53;5021467;28;20218;-70
2022/01/10 05:28:28;;;;;;;19.00;8.93;;;;;;;3.72;89.26;100679.47;5026485;28;20234;-70
2022/01/10 05:31:00;;;;;;;14.73;8.57;;;;;;;3.71;89.25;100683.03;5026558;28;20198;-71
2022/01/10 05:33:26;;;;;;;18.30;8.97;;;;;;;3.70;89.79;100686.56;5025426;28;20209;-70
2022/01/10 05:35:53;;;;;;;20.27;9.07;;;;;;;3.68;89.07;100691.03;5020155;28;20682;-72
2022/01/10 05:38:19;;;;;;;18.33;8.33;;;;;;;3.68;89.09;100698.06;5020445;28;20226;-71
2022/01/10 05:40:46;;;;;;;17.10;9.17;;;;;;;3.66;89.20;100703.38;5025077;28;20213;-69
2022/01/10 05:43:13;;;;;;;20.20;9.33;;;;;;;3.66;89.37;100710.44;5025803;28;20289;-70
2022/01/10 05:45:43;;;;;;;20.20;8.80;;;;;;;3.65;89.18;100717.47;5017241;28;20658;-72
2022/01/10 05:48:13;;;;;;;17.20;9.30;;;;;;;3.65;89.33;100729.78;5021157;28;20229;-70
2022/01/10 05:50:42;;;;;;;17.37;8.90;;;;;;;3.64;89.92;100739.44;5017660;28;20205;-71
2022/01/10 05:53:10;;;;;;;21.10;9.87;;;;;;;3.64;89.40;100743.84;5026594;28;20292;-72
2022/01/10 05:55:37;;;;;;;14.37;8.80;;;;;;;3.63;89.18;100743.00;5020151;28;20203;-72
2022/01/10 05:58:05;;;;;;;18.87;9.60;;;;;;;3.63;89.13;100747.41;5016052;28;20714;-71
2022/01/10 06:00:32;;;;;;;17.57;8.80;;;;;;;3.62;89.24;100749.16;5024438;28;20201;-71
2022/01/10 06:02:58;;;;;;;18.93;10.03;;;;;;;3.63;89.52;100757.94;5028768;28;20629;-71
2022/01/10 06:05:30;;;;;;;18.03;9.90;;;;;;;3.61;89.80;100768.50;5028739;28;20206;-71
2022/01/10 06:07:57;;;;;;;23.17;9.13;;;;;;;3.60;89.54;100769.41;5019330;28;20766;-73
2022/01/10 06:10:24;;;;;;;19.87;9.00;;;;;;;3.60;89.68;100777.31;5027841;28;20210;-71
2022/01/10 06:12:50;;;;;;;17.10;9.77;;;;;;;3.60;89.28;100787.84;5022132;28;20210;-70
2022/01/10 06:15:17;;;;;;;18.93;9.77;;;;;;;3.59;89.73;100782.63;5027311;28;20202;-71
2022/01/10 06:17:43;;;;;;;18.13;9.00;;;;;;;3.57;89.39;100784.50;5023939;28;20252;-71
2022/01/10 06:20:11;;;;;;;15.70;9.60;;;;;;;3.57;89.82;100792.38;5030831;28;20218;-71
2022/01/10 06:22:39;;;;;;;20.57;9.97;;;;;;;3.56;89.88;100798.56;5024629;28;20221;-74
2022/01/10 06:25:07;;;;;;;18.47;9.47;;;;;;;3.57;89.75;100810.81;5037155;28;20670;-73
2022/01/10 06:27:34;;;;;;;17.57;9.23;;;;;;;3.55;89.24;100816.13;5020927;28;20606;-74
2022/01/10 06:30:00;;;;;;;17.53;8.60;;;;;;;3.54;89.91;100818.81;5016644;28;20217;-75
2022/01/10 06:32:27;;;;;;;18.57;10.10;;;;;;;3.54;89.26;100816.19;5009867;28;20237;-74
2022/01/10 06:34:54;;;;;;;16.60;9.60;;;;;;;3.54;89.03;100826.72;5014535;28;20199;-74
2022/01/10 06:37:20;;;;;;;25.97;10.07;;;;;;;3.52;89.20;100834.66;5026076;28;20711;-74
2022/01/10 06:39:48;;;;;;;17.77;9.90;;;;;;;3.53;89.37;100838.16;5014604;28;20224;-74
2022/01/10 06:42:15;;;;;;;18.80;8.93;;;;;;;3.52;89.75;100846.97;5020640;28;20596;-74
2022/01/10 06:44:41;;;;;;;18.87;9.77;;;;;;;3.51;89.04;100855.78;5023513;28;20488;-74
2022/01/10 06:47:08;;;;;;;19.10;9.23;;;;;;;3.49;89.78;100858.44;5025304;28;20726;-74
2022/01/10 06:49:34;;;;;;;16.60;9.07;;;;;;;3.47;89.61;100866.41;5029767;28;20206;-74
2022/01/10 06:52:01;;;;;;;19.17;9.70;;;;;;;3.45;89.59;100878.75;5016839;28;20203;-73
2022/01/10 06:54:27;;;;;;;17.53;9.87;;;;;;;3.44;90.27;100890.19;5010559;28;20211;-74
2022/01/10 06:56:58;;;;;;;19.80;9.77;;;;;;;3.44;89.63;100881.41;5019675;28;20748;-71
2022/01/10 06:59:25;;;;;;;19.90;10.23;;;;;;;3.42;90.39;100883.22;5009341;28;20282;-74
2022/01/10 07:01:51;;;;;;;21.80;9.70;;;;;;;3.42;89.97;100889.34;5024097;28;20210;-74
2022/01/10 07:04:18;;;;;;;15.13;8.57;;;;;;;3.42;89.89;100891.13;5026743;28;20210;-72
2022/01/10 07:06:45;;;;;;;17.37;10.03;;;;;;;3.42;90.06;100899.88;5009346;28;20238;-74
2022/01/10 07:09:11;;;;;;;22.87;10.20;;;;;;;3.43;89.91;100904.25;5021689;28;20241;-73
2022/01/10 07:11:38;;;;;;;19.10;9.90;;;;;;;3.44;90.30;100908.59;5013730;28;20210;-74
2022/01/10 07:14:06;;;;;;;24.90;11.60;;;;;;;3.43;90.32;100912.16;5016850;28;20206;-74
2022/01/10 07:16:34;;;;;;;20.10;10.03;;;;;;;3.44;90.78;100927.03;5010367;28;20256;-74
2022/01/10 07:19:00;;;;;;;21.27;10.63;;;;;;;3.44;90.25;100934.94;5023400;28;20210;-74
2022/01/10 07:21:27;;;;;;;23.90;9.93;;;;;;;3.43;90.68;100938.47;5016987;28;20210;-74
2022/01/10 07:23:54;;;;;;;17.10;10.60;;;;;;;3.45;90.42;100952.47;5028093;28;20221;-74
2022/01/10 07:26:22;;;;;;;21.80;11.03;;;;;;;3.46;90.55;100956.81;5026524;28;20214;-74
2022/01/10 07:28:49;;;;;;;21.90;10.53;;;;;;;3.46;90.70;100964.72;5029289;28;20325;-74
2022/01/10 07:31:18;;;;;;;18.33;10.60;;;;;;;3.47;91.17;100963.81;5030539;28;20598;-74
2022/01/10 07:33:44;;;;;;;17.63;9.90;;;;;;;3.48;90.54;100978.72;5024973;28;20217;-74
2022/01/10 07:36:11;;;;;;;23.03;10.57;;;;;;;3.49;91.09;100984.84;5024620;28;20826;-74
2022/01/10 07:38:37;;;;;;;24.73;11.83;;;;;;;3.51;90.89;100983.03;5020325;28;20221;-75
2022/01/10 07:41:06;;;;;;;30.53;14.67;;;;;;;3.52;90.65;100991.78;5031638;28;20229;-73
2022/01/10 07:43:33;;;;;;;24.83;12.20;;;;;;;3.54;90.80;100997.88;5017628;28;20219;-74
2022/01/10 07:46:00;;;;;;;25.03;11.83;;;;;;;3.55;90.63;101004.88;5020240;28;20214;-74
2022/01/10 07:48:31;;;;;;;21.60;10.77;;;;;;;3.57;91.58;101003.06;5031112;28;20230;-74
2022/01/10 07:50:57;;;;;;;23.47;9.80;;;;;;;3.59;90.70;101006.50;5032870;28;20225;-74
2022/01/10 07:53:24;;;;;;;20.87;9.77;;;;;;;3.60;91.02;101016.13;5031216;28;20688;-73
2022/01/10 07:55:50;;;;;;;25.47;10.00;;;;;;;3.62;91.72;101016.94;5015178;28;20636;-74
2022/01/10 07:58:17;;;;;;;24.23;10.67;;;;;;;3.63;91.23;101027.44;5020022;28;20257;-74
2022/01/10 08:00:44;;;;;;;23.67;11.13;;;;;;;3.66;91.85;101029.13;5017233;28;20265;-74
2022/01/10 08:03:11;;;;;;;20.67;10.43;;;;;;;3.66;91.60;101029.97;5031766;28;20210;-73
2022/01/10 08:05:38;;;;;;;20.97;10.70;;;;;;;3.68;91.10;101037.84;5021146;28;20210;-75
2022/01/10 08:08:05;;;;;;;28.57;11.57;;;;;;;3.70;91.42;101042.16;5032325;22;20253;-84
2022/01/10 08:10:32;;;;;;;20.80;9.83;;;;;;;3.70;91.38;101046.56;5028401;28;20217;-83
2022/01/10 08:12:58;;;;;;;22.20;10.97;;;;;;;3.72;91.72;101056.16;5019312;28;20217;-82
2022/01/10 08:15:25;;;;;;;21.63;10.87;;;;;;;3.73;91.84;101049.97;5020209;28;20215;-83
2022/01/10 08:17:52;;;;;;;21.57;10.87;;;;;;;3.74;91.34;101059.63;5033461;28;20194;-83
2022/01/10 08:20:18;;;;;;;24.80;10.83;;;;;;;3.76;91.28;101070.13;5029662;28;20207;-84
2022/01/10 08:22:49;;;;;;;29.40;12.27;;;;;;;3.76;91.96;101067.47;5034251;28;20216;-82
2022/01/10 08:25:17;;;;;;;26.80;12.47;;;;;;;3.78;91.53;101081.44;5038418;28;20217;-82
2022/01/10 08:27:44;;;;;;;24.80;10.93;;;;;;;3.79;91.31;101078.75;5032823;28;20234;-82
2022/01/10 08:30:12;;;;;;;23.97;11.00;;;;;;;3.80;91.16;101082.25;5037669;28;20240;-82
2022/01/10 08:32:38;;;;;;;27.90;12.50;;;;;;;3.81;91.90;101087.50;5041194;28;20202;-82
2022/01/10 08:35:06;;;;;;;25.80;12.50;;;;;;;3.81;91.43;101105.06;5040856;28;20209;-82
2022/01/10 08:37:33;;;;;;;27.63;13.37;;;;;;;3.82;91.87;101101.53;5041604;28;20321;-82
2022/01/10 08:40:01;;;;;;;26.00;12.87;;;;;;;3.81;91.52;101103.31;5040639;28;20230;-82
2022/01/10 08:42:27;;;;;;;27.20;12.50;;;;;;;3.82;92.10;101109.44;5039990;28;20274;-82
2022/01/10 08:44:54;;;;;;;29.57;12.73;;;;;;;3.84;91.81;101112.91;5041747;28;20252;-82
2022/01/10 08:47:26;;;;;;;28.47;13.17;;;;;;;3.85;91.96;101117.25;5040785;28;20236;-82
2022/01/10 08:49:52;;;;;;;25.97;13.80;;;;;;;3.86;91.64;101118.13;5040484;28;20298;-82
2022/01/10 08:52:24;;;;;;;32.80;14.13;;;;;;;3.86;91.63;101116.34;5040244;28;20206;-83
2022/01/10 08:54:50;;;;;;;37.57;15.33;;;;;;;3.87;91.82;101125.13;5049385;28;20194;-83
2022/01/10 08:57:21;;;;;;;25.20;14.40;;;;;;;3.88;91.95;101129.50;5060076;28;20212;-82
2022/01/10 08:59:48;;;;;;;26.10;14.27;;;;;;;3.89;91.45;101132.09;5040824;28;20312;-82
2022/01/10 09:02:15;;;;;;;30.47;14.23;;;;;;;3.91;92.11;101132.03;5040448;28;20698;-83
2022/01/10 09:04:42;;;;;;;34.27;14.90;;;;;;;3.93;91.89;101141.63;5041678;28;20202;-82
2022/01/10 09:07:11;;;;;;;29.53;14.37;;;;;;;3.94;91.96;101139.88;5040035;28;20214;-82
2022/01/10 09:09:38;;;;;;;27.57;14.13;;;;;;;3.97;91.35;101148.53;5040541;28;20228;-82
2022/01/10 09:12:06;;;;;;;28.63;14.57;;;;;;;3.98;92.04;101152.88;5040030;28;20705;-82
2022/01/10 09:14:34;;;;;;;26.50;14.20;;;;;;;4.00;91.88;101153.72;5040713;28;20214;-82
2022/01/10 09:17:01;;;;;;;29.17;14.80;;;;;;;4.03;91.69;101158.03;5040015;28;20225;-82
2022/01/10 09:19:28;;;;;;;22.90;13.83;;;;;;;4.04;91.52;101167.66;5039605;28;20226;-82
2022/01/10 09:21:54;;;;;;;32.13;14.13;;;;;;;4.05;91.92;101165.00;5040345;28;20274;-82
2022/01/10 09:24:23;;;;;;;31.53;13.57;;;;;;;4.06;91.63;101165.88;5039917;28;20213;-82
2022/01/10 09:26:50;;;;;;;29.07;13.90;;;;;;;4.08;91.90;101170.19;5040013;28;20264;-82
2022/01/10 09:29:19;;;;;;;29.17;13.70;;;;;;;4.10;91.92;101175.41;5039713;28;20234;-82
2022/01/10 09:31:47;;;;;;;29.97;14.70;;;;;;;4.11;91.84;101185.06;5040826;28;20293;-82
2022/01/10 09:34:14;;;;;;;27.50;13.97;;;;;;;4.13;91.31;101188.47;5039524;28;20221;-82
2022/01/10 09:36:43;;;;;;;30.83;14.90;;;;;;;4.15;91.83;101192.81;5039599;28;20209;-81
2022/01/10 09:39:13;;;;;;;35.30;16.10;;;;;;;4.17;91.70;101191.00;5039363;28;20228;-81
2022/01/10 09:41:39;;;;;;;28.00;15.57;;;;;;;4.19;91.31;101191.81;5038988;28;20726;-81
2022/01/10 09:44:07;;;;;;;32.60;15.83;;;;;;;4.22;91.89;101198.78;5038863;28;20215;-81
2022/01/10 09:46:36;;;;;;;29.73;16.87;;;;;;;4.25;91.86;101211.03;5039254;28;20214;-81
2022/01/10 09:49:06;;;;;;;30.27;15.13;;;;;;;4.26;92.01;101212.75;5038887;28;20293;-81
2022/01/10 09:51:35;;;;;;;36.97;16.17;;;;;;;4.27;91.50;101214.47;5039567;28;20715;-81
2022/01/10 09:54:06;;;;;;;30.80;15.87;;;;;;;4.29;91.45;101225.84;5039417;28;20206;-80
2022/01/10 09:56:33;;;;;;;33.53;15.83;;;;;;;4.30;91.90;101217.03;5039528;28;20187;-80
2022/01/10 09:59:00;;;;;;;32.50;15.73;;;;;;;4.30;91.68;101222.31;5039264;28;20586;-81
2022/01/10 10:01:31;;;;;;;33.27;16.03;;;;;;;4.31;91.89;101224.88;5031583;28;20217;-81
2022/01/10 10:03:59;;;;;;;26.40;15.17;;;;;;;4.33;91.93;101225.69;5032984;28;20206;-81
2022/01/10 10:06:32;;;;;;;30.23;14.90;;;;;;;4.34;91.90;101235.34;5038959;28;20206;-81
2022/01/10 10:09:00;;;;;;;28.87;13.90;;;;;;;4.36;91.87;101243.22;5038629;28;20260;-81
2022/01/10 10:11:42;;;;;;;30.93;14.53;;;;;;;4.38;91.77;101251.94;5039529;28;20575;-81
2022/01/10 10:14:10;;;;;;;32.13;15.70;;;;;;;4.38;91.83;101250.19;5038729;28;20194;-81
2022/01/10 10:16:39;;;;;;;29.27;15.07;;;;;;;4.39;91.79;101269.50;5048784;28;20236;-82
2022/01/10 10:19:06;;;;;;;35.57;16.53;;;;;;;4.41;91.81;101263.28;5033046;28;20222;-82
2022/01/10 10:21:35;;;;;;;40.13;19.43;;;;;;;4.44;91.69;101265.84;5032016;28;20224;-81
2022/01/10 10:24:04;;;;;;;61.10;27.93;;;;;;;4.47;92.24;101270.16;5035123;28;20210;-81
2022/01/10 10:26:31;;;;;;;35.73;17.30;;;;;;;4.50;91.71;101270.06;5033801;28;20217;-81
2022/01/10 10:28:59;;;;;;;30.60;15.67;;;;;;;4.54;91.93;101288.41;5037891;28;20248;-81
2022/01/10 10:31:27;;;;;;;35.57;13.70;;;;;;;4.59;91.77;101287.41;5038002;28;20249;-81
2022/01/10 10:33:55;;;;;;;28.67;11.77;;;;;;;4.61;92.27;101290.88;5030043;28;20217;-81
2022/01/10 10:36:22;;;;;;;25.70;11.10;;;;;;;4.63;92.09;101300.47;5035967;28;20210;-81
2022/01/10 10:38:50;;;;;;;29.47;12.20;;;;;;;4.65;91.88;101298.66;5043626;28;20249;-81
2022/01/10 10:41:19;;;;;;;25.73;11.87;;;;;;;4.69;91.75;101307.31;5038399;28;20214;-80
2022/01/10 10:43:46;;;;;;;29.87;12.37;;;;;;;4.72;91.76;101312.53;5038717;28;20221;-81
2022/01/10 10:46:16;;;;;;;20.43;10.93;;;;;;;4.74;92.06;101310.72;5039294;28;20206;-82
2022/01/10 10:48:44;;;;;;;22.53;10.17;;;;;;;4.77;92.02;101319.41;5041412;28;20750;-81
2022/01/10 10:51:11;;;;;;;21.43;9.00;;;;;;;4.78;91.83;101323.78;5031568;28;20210;-81
2022/01/10 10:53:38;;;;;;;26.70;10.40;;;;;;;4.81;91.99;101322.81;5030157;28;20213;-81
2022/01/10 10:56:07;;;;;;;22.67;10.50;;;;;;;4.83;91.79;101332.44;5037734;28;20660;-82
2022/01/10 10:58:35;;;;;;;20.27;9.30;;;;;;;4.84;91.36;101328.00;5023177;28;20235;-81
2022/01/10 11:01:03;;;;;;;18.63;9.10;;;;;;;4.85;91.88;101333.22;5034922;28;20229;-81
2022/01/10 11:03:30;;;;;;;23.00;9.50;;;;;;;4.87;91.48;101336.69;5032079;28;20205;-81
2022/01/10 11:05:59;;;;;;;26.50;10.53;;;;;;;4.91;91.33;101342.75;5040515;28;20213;-81
2022/01/10 11:08:28;;;;;;;15.17;8.70;;;;;;;4.94;91.50;101341.81;5029048;28;20241;-81
2022/01/10 11:10:55;;;;;;;23.37;9.53;;;;;;;4.96;91.25;101345.25;5054107;28;20213;-81
2022/01/10 11:13:24;;;;;;;22.73;9.10;;;;;;;4.99;91.31;101346.03;5040145;28;20209;-81
2022/01/10 11:15:52;;;;;;;25.63;9.07;;;;;;;5.01;91.18;101343.38;5028844;28;20206;-82
2022/01/10 11:18:22;;;;;;;16.07;8.70;;;;;;;5.02;91.21;101340.66;5036761;28;20308;-80
2022/01/10 11:20:50;;;;;;;15.27;8.10;;;;;;;5.04;90.80;101349.41;5024920;28;20206;-81
2022/01/10 11:23:22;;;;;;;26.27;9.47;;;;;;;5.06;91.21;101350.22;5033715;28;20210;-81
2022/01/10 11:25:48;;;;;;;18.87;8.00;;;;;;;5.08;90.83;101361.59;5039904;28;20202;-81